createdAt,value
2022-10-13T00:00:20.209Z,96800.97
2022-10-13T00:02:55.396Z,96796.06
2022-10-13T00:05:28.388Z,96802.25
2022-10-13T00:08:01.604Z,96805.03
2022-10-13T00:10:37.898Z,96809.34
2022-10-13T00:13:10.812Z,96802.03
2022-10-13T00:15:45.981Z,96804.38
2022-10-13T00:18:20.294Z,96802.91
2022-10-13T00:20:53.299Z,96801.78
2022-10-13T00:23:26.181Z,96807.94
2022-10-13T00:25:59.299Z,96807.56
2022-10-13T00:28:33.140Z,96810.69
2022-10-13T00:31:15.311Z,96807.66
2022-10-13T00:33:49.976Z,96814.63
2022-10-13T00:36:23.714Z,96815.75
2022-10-13T00:38:57.704Z,96825.84
2022-10-13T00:41:30.557Z,96819.28
2022-10-13T00:44:05.800Z,96818.53
2022-10-13T00:46:38.830Z,96830.09
2022-10-13T00:49:15.704Z,96822.41
2022-10-13T00:51:51.268Z,96808.47
2022-10-13T00:54:26.543Z,96804.25
2022-10-13T00:56:59.754Z,96806.50
2022-10-13T00:59:32.730Z,96801.47
2022-10-13T01:02:05.921Z,96797.91
2022-10-13T01:04:44.068Z,96800.59
2022-10-13T01:07:20.069Z,96795.84
2022-10-13T01:09:53.230Z,96794.66
2022-10-13T01:12:39.696Z,96798.84
2022-10-13T01:15:23.156Z,96785.63
2022-10-13T01:18:06.588Z,96780.16
2022-10-13T01:21:05.296Z,96782.34
2022-10-13T01:24:06.975Z,96781.47
2022-10-13T01:27:05.945Z,96793.34
2022-10-13T01:30:09.003Z,96785.97
2022-10-13T01:33:11.486Z,96794.41
2022-10-13T01:35:54.081Z,96788.59
2022-10-13T01:38:36.483Z,96785.88
2022-10-13T01:41:15.548Z,96783.63
2022-10-13T01:43:52.852Z,96779.34
2022-10-13T01:46:30.933Z,96776.31
2022-10-13T01:49:07.712Z,96775.53
2022-10-13T01:51:41.812Z,96766.28
2022-10-13T01:54:14.651Z,96778.66
2022-10-13T01:56:53.332Z,96774.09
2022-10-13T01:59:28.723Z,96767.91
2022-10-13T02:02:14.040Z,96773.72
2022-10-13T02:04:56.724Z,96770.69
2022-10-13T02:07:36.031Z,96764.50
2022-10-13T02:10:15.849Z,96769.22
2022-10-13T02:12:54.449Z,96764.63
2022-10-13T02:15:31.818Z,96760.00
2022-10-13T02:18:07.257Z,96751.13
2022-10-13T02:20:45.887Z,96759.22
2022-10-13T02:23:20.372Z,96754.94
2022-10-13T02:25:53.408Z,96754.50
2022-10-13T02:28:26.737Z,96759.56
2022-10-13T02:30:59.705Z,96758.31
2022-10-13T02:33:34.091Z,96754.16
2022-10-13T02:36:07.239Z,96751.34
2022-10-13T02:38:40.416Z,96754.06
2022-10-13T02:41:13.254Z,96753.63
2022-10-13T02:43:46.201Z,96753.63
2022-10-13T02:46:19.218Z,96752.84
2022-10-13T02:48:53.902Z,96754.78
2022-10-13T02:51:27.827Z,96755.91
2022-10-13T02:54:00.620Z,96752.78
2022-10-13T02:56:33.568Z,96750.53
2022-10-13T02:59:09.543Z,96754.00
2022-10-13T03:01:44.372Z,96755.13
2022-10-13T03:04:18.657Z,96748.59
2022-10-13T03:06:51.457Z,96755.13
2022-10-13T03:09:24.256Z,96757.84
2022-10-13T03:11:57.124Z,96754.00
2022-10-13T03:14:30.080Z,96753.63
2022-10-13T03:17:03.140Z,96766.00
2022-10-13T03:19:37.503Z,96764.50
2022-10-13T03:22:10.341Z,96757.97
2022-10-13T03:24:43.261Z,96767.31
2022-10-13T03:27:16.204Z,96765.03
2022-10-13T03:29:49.224Z,96765.44
2022-10-13T03:32:22.447Z,96760.47
2022-10-13T03:34:56.937Z,96769.78
2022-10-13T03:37:30.642Z,96769.41
2022-10-13T03:40:03.543Z,96773.34
2022-10-13T03:42:37.598Z,96769.84
2022-10-13T03:45:11.222Z,96775.25
2022-10-13T03:47:44.041Z,96774.47
2022-10-13T03:50:18.561Z,96766.72
2022-10-13T03:52:51.371Z,96766.31
2022-10-13T03:55:24.833Z,96766.31
2022-10-13T03:57:57.600Z,96748.53
2022-10-13T04:00:32.921Z,96748.13
2022-10-13T04:03:05.788Z,96743.84
2022-10-13T04:05:40.423Z,96745.41
2022-10-13T04:08:13.790Z,96740.72
2022-10-13T04:10:48.803Z,96745.34
2022-10-13T04:13:21.717Z,96739.53
2022-10-13T04:15:54.982Z,96746.06
2022-10-13T04:18:27.889Z,96752.56
2022-10-13T04:21:02.183Z,96755.63
2022-10-13T04:23:35.005Z,96761.03
2022-10-13T04:26:08.240Z,96757.53
2022-10-13T04:28:41.146Z,96756.31
2022-10-13T04:31:14.214Z,96755.19
2022-10-13T04:33:47.054Z,96738.16
2022-10-13T04:36:21.949Z,96740.13
2022-10-13T04:38:55.992Z,96731.63
2022-10-13T04:41:28.889Z,96735.81
2022-10-13T04:44:02.648Z,96736.16
2022-10-13T04:46:35.861Z,96739.22
2022-10-13T04:49:08.761Z,96734.59
2022-10-13T04:51:43.346Z,96734.94
2022-10-13T04:54:16.191Z,96734.25
2022-10-13T04:56:49.251Z,96735.03
2022-10-13T04:59:22.170Z,96723.44
2022-10-13T05:01:55.136Z,96727.34
2022-10-13T05:04:28.014Z,96735.47
2022-10-13T05:07:18.674Z,96733.19
2022-10-13T05:09:52.282Z,96733.94
2022-10-13T05:12:25.158Z,96734.38
2022-10-13T05:14:58.973Z,96733.25
2022-10-13T05:17:35.337Z,96735.25
2022-10-13T05:20:10.323Z,96736.84
2022-10-13T05:22:44.935Z,96739.16
2022-10-13T05:25:17.807Z,96736.09
2022-10-13T05:27:50.907Z,96735.75
2022-10-13T05:30:23.940Z,96740.78
2022-10-13T05:32:56.804Z,96735.03
2022-10-13T05:35:29.828Z,96726.94
2022-10-13T05:38:04.389Z,96729.69
2022-10-13T05:40:37.186Z,96731.59
2022-10-13T05:43:10.015Z,96730.06
2022-10-13T05:45:42.872Z,96737.00
2022-10-13T05:48:15.889Z,96738.94
2022-10-13T05:50:48.794Z,96750.94
2022-10-13T05:53:24.324Z,96751.38
2022-10-13T05:56:06.008Z,96752.16
2022-10-13T05:58:43.739Z,96756.06
2022-10-13T06:01:21.399Z,96756.06
2022-10-13T06:03:56.363Z,96758.00
2022-10-13T06:06:31.506Z,96758.00
2022-10-13T06:09:06.189Z,96757.59
2022-10-13T06:11:39.121Z,96758.38
2022-10-13T06:14:11.955Z,96751.06
2022-10-13T06:16:44.733Z,96746.09
2022-10-13T06:19:17.670Z,96745.75
2022-10-13T06:21:50.580Z,96742.34
2022-10-13T06:24:25.000Z,96740.03
2022-10-13T06:26:57.810Z,96728.88
2022-10-13T06:29:31.004Z,96732.78
2022-10-13T06:32:04.255Z,96722.41
2022-10-13T06:34:37.191Z,96729.00
2022-10-13T06:37:10.270Z,96728.28
2022-10-13T06:39:44.589Z,96727.97
2022-10-13T06:42:18.731Z,96733.81
2022-10-13T06:44:52.049Z,96731.97
2022-10-13T06:47:25.267Z,96734.31
2022-10-13T06:49:58.529Z,96730.88
2022-10-13T06:52:31.509Z,96732.44
2022-10-13T06:55:06.827Z,96732.91
2022-10-13T06:57:41.094Z,96729.50
2022-10-13T07:00:14.402Z,96729.56
2022-10-13T07:02:51.383Z,96719.66
2022-10-13T07:05:25.820Z,96712.31
2022-10-13T07:07:58.622Z,96703.06
2022-10-13T07:10:32.984Z,96711.56
2022-10-13T07:13:05.951Z,96702.28
2022-10-13T07:15:41.001Z,96707.25
2022-10-13T07:18:14.289Z,96699.50
2022-10-13T07:20:47.183Z,96699.94
2022-10-13T07:23:20.160Z,96696.09
2022-10-13T07:25:56.819Z,96692.72
2022-10-13T07:28:29.786Z,96684.28
2022-10-13T07:31:11.489Z,96690.25
2022-10-13T07:33:47.158Z,96693.09
2022-10-13T07:36:20.480Z,96696.38
2022-10-13T07:38:53.326Z,96687.25
2022-10-13T07:41:27.742Z,96690.53
2022-10-13T07:44:01.687Z,96681.41
2022-10-13T07:46:34.519Z,96690.88
2022-10-13T07:49:09.262Z,96684.06
2022-10-13T07:51:44.643Z,96691.97
2022-10-13T07:54:22.472Z,96693.25
2022-10-13T07:56:58.163Z,96687.56
2022-10-13T07:59:33.976Z,96689.97
2022-10-13T08:02:07.098Z,96697.06
2022-10-13T08:04:40.199Z,96691.34
2022-10-13T08:07:13.269Z,96692.22
2022-10-13T08:09:46.113Z,96698.50
2022-10-13T08:12:20.625Z,96686.94
2022-10-13T08:14:54.605Z,96692.47
2022-10-13T08:17:27.566Z,96695.25
2022-10-13T08:20:00.451Z,96689.91
2022-10-13T08:22:34.359Z,96684.50
2022-10-13T08:25:08.601Z,96680.66
2022-10-13T08:27:50.997Z,96681.47
2022-10-13T08:30:24.536Z,96685.78
2022-10-13T08:32:57.560Z,96683.13
2022-10-13T08:35:34.820Z,96676.53
2022-10-13T08:38:08.090Z,96672.28
2022-10-13T08:40:40.921Z,96679.28
2022-10-13T08:43:19.104Z,96678.88
2022-10-13T08:45:54.835Z,96680.78
2022-10-13T08:48:32.171Z,96679.25
2022-10-13T08:51:08.759Z,96680.84
2022-10-13T08:53:43.738Z,96682.00
2022-10-13T08:56:20.930Z,96689.41
2022-10-13T08:58:56.883Z,96696.00
2022-10-13T09:01:32.406Z,96681.28
2022-10-13T09:04:22.243Z,96679.38
2022-10-13T09:06:59.883Z,96681.31
2022-10-13T09:09:32.838Z,96679.78
2022-10-13T09:12:07.025Z,96687.59
2022-10-13T09:14:42.311Z,96677.16
2022-10-13T09:17:18.580Z,96674.03
2022-10-13T09:20:00.236Z,96672.88
2022-10-13T09:22:34.001Z,96679.47
2022-10-13T09:25:17.365Z,96670.50
2022-10-13T09:27:52.363Z,96678.28
2022-10-13T09:30:32.065Z,96688.00
2022-10-13T09:33:23.787Z,96680.97
2022-10-13T09:36:11.272Z,96688.75
2022-10-13T09:39:05.152Z,96681.72
2022-10-13T09:41:38.236Z,96689.13
2022-10-13T09:44:17.794Z,96694.94
2022-10-13T09:46:54.794Z,96700.38
2022-10-13T09:49:38.412Z,96699.22
2022-10-13T09:52:22.414Z,96698.09
2022-10-13T09:54:59.190Z,96693.41
2022-10-13T09:57:44.356Z,96697.31
2022-10-13T10:00:22.283Z,96700.03
2022-10-13T10:03:01.275Z,96694.19
2022-10-13T10:05:43.115Z,96695.34
2022-10-13T10:08:28.808Z,96685.63
2022-10-13T10:11:13.791Z,96689.88
2022-10-13T10:13:46.810Z,96694.94
2022-10-13T10:16:30.034Z,96684.06
2022-10-13T10:19:09.414Z,96687.13
2022-10-13T10:21:49.138Z,96687.91
2022-10-13T10:24:29.842Z,96685.16
2022-10-13T10:27:07.366Z,96686.72
2022-10-13T10:29:49.433Z,96671.91
2022-10-13T10:32:34.853Z,96667.22
2022-10-13T10:35:14.997Z,96658.25
2022-10-13T10:38:00.909Z,96661.34
2022-10-13T10:40:41.269Z,96660.53
2022-10-13T10:43:34.696Z,96655.50
2022-10-13T10:46:15.916Z,96662.06
2022-10-13T10:48:50.959Z,96658.56
2022-10-13T10:51:31.745Z,96650.72
2022-10-13T10:54:19.538Z,96656.94
2022-10-13T10:56:57.445Z,96656.53
2022-10-13T10:59:51.353Z,96654.56
2022-10-13T11:02:46.361Z,96670.13
2022-10-13T11:05:19.549Z,96657.25
2022-10-13T11:07:59.754Z,96652.94
2022-10-13T11:10:32.875Z,96647.50
2022-10-13T11:13:26.990Z,96642.75
2022-10-13T11:16:30.239Z,96635.31
2022-10-13T11:19:08.855Z,96630.63
2022-10-13T11:22:14.674Z,96636.41
2022-10-13T11:25:42.636Z,96620.75
2022-10-13T11:28:46.398Z,96620.72
2022-10-13T11:31:41.682Z,96623.38
2022-10-13T11:34:31.593Z,96634.25
2022-10-13T11:37:17.915Z,96625.69
2022-10-13T11:40:20.902Z,96613.94
2022-10-13T11:43:26.854Z,96621.69
2022-10-13T11:46:21.418Z,96615.41
2022-10-13T11:49:27.758Z,96617.75
2022-10-13T11:52:29.043Z,96608.34
2022-10-13T11:55:06.502Z,96608.31
2022-10-13T11:57:40.772Z,96600.50
2022-10-13T12:00:16.730Z,96593.81
2022-10-13T12:02:51.000Z,96587.94
2022-10-13T12:05:25.555Z,96584.81
2022-10-13T12:08:02.151Z,96577.00
2022-10-13T12:10:37.995Z,96567.25
2022-10-13T12:13:22.032Z,96568.44
2022-10-13T12:16:01.056Z,96562.66
2022-10-13T12:18:36.273Z,96568.53
2022-10-13T12:21:12.749Z,96559.25
2022-10-13T12:23:45.730Z,96558.94
2022-10-13T12:26:21.723Z,96553.91
2022-10-13T12:28:58.119Z,96551.22
2022-10-13T12:31:40.436Z,96562.16
2022-10-13T12:34:20.695Z,96544.66
2022-10-13T12:36:57.315Z,96552.47
2022-10-13T12:39:33.221Z,96548.97
2022-10-13T12:42:12.046Z,96543.13
2022-10-13T12:44:47.435Z,96540.78
2022-10-13T12:47:41.711Z,96534.50
2022-10-13T12:50:36.954Z,96526.69
2022-10-13T12:53:19.258Z,96524.75
2022-10-13T12:55:58.575Z,96521.63
2022-10-13T12:58:32.706Z,96529.00
2022-10-13T13:01:11.552Z,96525.03
2022-10-13T13:03:45.593Z,96522.69
2022-10-13T13:06:43.250Z,96517.53
2022-10-13T13:09:27.493Z,96517.09
2022-10-13T13:12:27.745Z,96523.28
2022-10-13T13:15:19.715Z,96522.09
2022-10-13T13:17:58.962Z,96515.47
2022-10-13T13:20:34.813Z,96516.25
2022-10-13T13:23:08.699Z,96514.69
2022-10-13T13:25:41.565Z,96517.88
2022-10-13T13:28:16.464Z,96525.31
2022-10-13T13:30:49.579Z,96524.22
2022-10-13T13:33:24.524Z,96529.72
2022-10-13T13:35:57.889Z,96526.28
2022-10-13T13:38:30.891Z,96529.88
2022-10-13T13:41:04.145Z,96513.56
2022-10-13T13:43:37.149Z,96513.59
2022-10-13T13:46:17.928Z,96512.88
2022-10-13T13:48:52.725Z,96515.63
2022-10-13T13:51:25.590Z,96510.56
2022-10-13T13:53:58.620Z,96499.28
2022-10-13T13:56:31.717Z,96491.53
2022-10-13T13:59:04.617Z,96497.72
2022-10-13T14:01:38.028Z,96495.78
2022-10-13T14:04:12.640Z,96499.28
2022-10-13T14:06:45.785Z,96493.03
2022-10-13T14:09:18.799Z,96487.59
2022-10-13T14:11:52.297Z,96489.53
2022-10-13T14:14:25.412Z,96487.19
2022-10-13T14:16:58.493Z,96482.50
2022-10-13T14:19:33.257Z,96489.13
2022-10-13T14:22:19.981Z,96478.97
2022-10-13T14:24:53.052Z,96482.09
2022-10-13T14:27:25.970Z,96476.63
2022-10-13T14:29:58.897Z,96483.59
2022-10-13T14:32:33.323Z,96477.81
2022-10-13T14:35:08.511Z,96487.16
2022-10-13T14:37:41.709Z,96481.34
2022-10-13T14:40:14.738Z,96484.13
2022-10-13T14:42:47.576Z,96487.28
2022-10-13T14:45:20.873Z,96480.34
2022-10-13T14:47:54.031Z,96476.09
2022-10-13T14:50:28.332Z,96466.03
2022-10-13T14:53:01.270Z,96466.09
2022-10-13T14:55:34.418Z,96469.66
2022-10-13T14:58:07.279Z,96465.47
2022-10-13T15:00:40.299Z,96468.25
2022-10-13T15:03:13.309Z,96460.91
2022-10-13T15:05:47.768Z,96462.91
2022-10-13T15:08:20.677Z,96466.09
2022-10-13T15:11:00.649Z,96458.38
2022-10-13T15:13:33.488Z,96459.97
2022-10-13T15:16:07.823Z,96458.47
2022-10-13T15:18:40.628Z,96456.97
2022-10-13T15:21:16.325Z,96445.75
2022-10-13T15:23:49.850Z,96451.59
2022-10-13T15:26:23.008Z,96458.25
2022-10-13T15:28:57.228Z,96461.00
2022-10-13T15:31:31.071Z,96462.19
2022-10-13T15:34:04.440Z,96453.28
2022-10-13T15:36:38.838Z,96464.59
2022-10-13T15:39:12.298Z,96459.56
2022-10-13T15:44:21.060Z,96458.44
2022-10-13T15:47:07.598Z,96460.41
2022-10-13T15:49:41.315Z,96463.16
2022-10-13T15:52:15.638Z,96459.25
2022-10-13T15:54:51.445Z,96458.88
2022-10-13T15:57:27.003Z,96454.59
2022-10-13T15:59:59.815Z,96448.78
2022-10-13T16:02:32.654Z,96447.63
2022-10-13T16:05:06.466Z,96449.59
2022-10-13T16:07:41.598Z,96454.25
2022-10-13T16:10:15.739Z,96453.09
2022-10-13T16:12:49.768Z,96463.94
2022-10-13T16:15:22.714Z,96455.44
2022-10-13T16:17:55.523Z,96455.81
2022-10-13T16:20:34.055Z,96447.28
2022-10-13T16:23:08.383Z,96446.50
2022-10-13T16:25:41.301Z,96447.28
2022-10-13T16:28:15.149Z,96444.97
2022-10-13T16:30:48.070Z,96442.63
2022-10-13T16:33:21.050Z,96443.41
2022-10-13T16:36:03.340Z,96451.91
2022-10-13T16:38:37.688Z,96448.41
2022-10-13T16:41:14.452Z,96439.88
2022-10-13T16:43:48.522Z,96448.00
2022-10-13T16:46:21.657Z,96447.59
2022-10-13T16:48:54.483Z,96447.56
2022-10-13T16:51:28.200Z,96452.97
2022-10-13T16:54:04.401Z,96450.25
2022-10-13T16:56:37.497Z,96461.47
2022-10-13T16:59:11.579Z,96463.00
2022-10-13T17:01:45.224Z,96461.41
2022-10-13T17:04:22.013Z,96459.81
2022-10-13T17:06:55.123Z,96461.69
2022-10-13T17:09:29.430Z,96457.78
2022-10-13T17:12:02.386Z,96461.63
2022-10-13T17:14:35.384Z,96480.19
2022-10-13T17:17:08.243Z,96472.03
2022-10-13T17:19:41.084Z,96471.19
2022-10-13T17:22:13.886Z,96476.19
2022-10-13T17:24:49.423Z,96482.34
2022-10-13T17:27:22.625Z,96474.59
2022-10-13T17:29:55.910Z,96474.56
2022-10-13T17:32:28.832Z,96478.41
2022-10-13T17:35:01.762Z,96481.50
2022-10-13T17:37:34.639Z,96484.97
2022-10-13T17:40:10.542Z,96475.28
2022-10-13T17:42:44.464Z,96476.78
2022-10-13T17:45:17.474Z,96482.94
2022-10-13T17:47:50.798Z,96487.59
2022-10-13T17:50:23.853Z,96475.16
2022-10-13T17:52:56.770Z,96476.28
2022-10-13T17:55:31.992Z,96480.91
2022-10-13T17:58:05.731Z,96478.19
2022-10-13T18:01:00.633Z,96484.34
2022-10-13T18:03:31.360Z,96481.22
2022-10-13T18:06:04.298Z,96484.25
2022-10-13T18:08:37.144Z,96487.31
2022-10-13T18:11:13.458Z,96493.88
2022-10-13T18:13:47.204Z,96496.94
2022-10-13T18:16:22.129Z,96504.22
2022-10-13T18:18:57.088Z,96508.84
2022-10-13T18:21:30.186Z,96520.78
2022-10-13T18:24:04.020Z,96518.03
2022-10-13T18:26:38.729Z,96523.44
2022-10-13T18:29:13.502Z,96524.97
2022-10-13T18:31:46.457Z,96528.00
2022-10-13T18:34:19.909Z,96534.56
2022-10-13T18:36:55.129Z,96529.53
2022-10-13T18:39:30.125Z,96530.25
2022-10-13T18:42:04.373Z,96532.19
2022-10-13T18:44:37.413Z,96537.97
2022-10-13T18:47:10.317Z,96539.84
2022-10-13T18:49:43.343Z,96539.44
2022-10-13T18:52:16.351Z,96535.53
2022-10-13T18:54:50.743Z,96536.69
2022-10-13T18:57:25.082Z,96535.50
2022-10-13T18:59:57.929Z,96535.47
2022-10-13T19:02:30.903Z,96531.56
2022-10-13T19:05:03.692Z,96536.94
2022-10-13T19:07:39.091Z,96544.22
2022-10-13T19:10:12.470Z,96541.13
2022-10-13T19:12:46.732Z,96543.06
2022-10-13T19:15:19.550Z,96539.84
2022-10-13T19:17:52.510Z,96535.97
2022-10-13T19:20:25.365Z,96536.69
2022-10-13T19:22:58.607Z,96537.41
2022-10-13T19:25:31.520Z,96538.94
2022-10-13T19:28:05.820Z,96531.56
2022-10-13T19:30:39.030Z,96534.22
2022-10-13T19:33:13.441Z,96523.00
2022-10-13T19:35:48.372Z,96529.91
2022-10-13T19:38:21.437Z,96525.22
2022-10-13T19:40:54.394Z,96525.97
2022-10-13T19:43:29.158Z,96531.38
2022-10-13T19:46:02.013Z,96527.06
2022-10-13T19:48:35.877Z,96530.13
2022-10-13T19:51:10.563Z,96533.94
2022-10-13T19:53:43.984Z,96537.00
2022-10-13T19:56:24.736Z,96533.50
2022-10-13T19:58:59.460Z,96547.34
2022-10-13T20:01:32.810Z,96536.13
2022-10-13T20:04:05.926Z,96544.59
2022-10-13T20:06:38.996Z,96551.13
2022-10-13T20:09:14.018Z,96553.81
2022-10-13T20:11:47.605Z,96550.69
2022-10-13T20:14:22.310Z,96551.50
2022-10-13T20:16:56.877Z,96554.94
2022-10-13T20:19:29.696Z,96558.78
2022-10-13T20:22:02.488Z,96553.38
2022-10-13T20:24:35.288Z,96549.53
2022-10-13T20:27:08.058Z,96558.03
2022-10-13T20:29:42.236Z,96563.44
2022-10-13T20:32:15.896Z,96563.03
2022-10-13T20:34:48.898Z,96572.72
2022-10-13T20:37:22.028Z,96570.72
2022-10-13T20:39:55.429Z,96572.63
2022-10-13T20:42:28.288Z,96575.34
2022-10-13T20:45:02.842Z,96579.19
2022-10-13T20:47:35.909Z,96581.44
2022-10-13T20:50:09.689Z,96576.41
2022-10-13T20:52:42.518Z,96576.41
2022-10-13T20:55:15.418Z,96577.94
2022-10-13T20:57:51.831Z,96576.78
2022-10-13T21:00:26.107Z,96564.44
2022-10-13T21:03:01.868Z,96562.88
2022-10-13T21:05:35.152Z,96559.75
2022-10-13T21:08:07.950Z,96556.63
2022-10-13T21:10:40.883Z,96564.72
2022-10-13T21:13:14.426Z,96563.16
2022-10-13T21:15:48.927Z,96567.81
2022-10-13T21:18:21.781Z,96565.81
2022-10-13T21:20:54.579Z,96566.53
2022-10-13T21:23:27.556Z,96558.44
2022-10-13T21:26:02.523Z,96554.16
2022-10-13T21:28:37.885Z,96557.59
2022-10-13T21:31:15.114Z,96557.59
2022-10-13T21:33:48.250Z,96563.72
2022-10-13T21:36:23.107Z,96560.25
2022-10-13T21:38:58.392Z,96553.63
2022-10-13T21:41:31.795Z,96558.63
2022-10-13T21:44:05.117Z,96555.47
2022-10-13T21:46:39.425Z,96560.09
2022-10-13T21:49:12.553Z,96565.50
2022-10-13T21:51:45.420Z,96563.94
2022-10-13T21:54:18.277Z,96567.00
2022-10-13T21:56:51.120Z,96571.59
2022-10-13T21:59:24.005Z,96565.06
2022-10-13T22:02:00.587Z,96562.38
2022-10-13T22:04:33.526Z,96557.75
2022-10-13T22:07:06.721Z,96557.34
2022-10-13T22:09:39.918Z,96557.72
2022-10-13T22:12:12.724Z,96554.25
2022-10-13T22:14:45.594Z,96555.78
2022-10-13T22:17:21.724Z,96548.09
2022-10-13T22:19:55.007Z,96552.31
2022-10-13T22:22:30.979Z,96550.38
2022-10-13T22:25:06.194Z,96561.56
2022-10-13T22:27:38.996Z,96555.38
2022-10-13T22:30:12.556Z,96546.06
2022-10-13T22:32:46.931Z,96551.47
2022-10-13T22:35:19.812Z,96558.34
2022-10-13T22:37:52.672Z,96549.06
2022-10-13T22:40:25.539Z,96544.81
2022-10-13T22:42:58.393Z,96533.59
2022-10-13T22:45:31.253Z,96545.16
2022-10-13T22:48:06.179Z,96537.06
2022-10-13T22:50:39.031Z,96549.00
2022-10-13T22:53:11.925Z,96545.09
2022-10-13T22:55:44.986Z,96540.47
2022-10-13T22:58:17.758Z,96547.78
2022-10-13T23:00:50.579Z,96543.13
2022-10-13T23:03:24.787Z,96541.22
2022-10-13T23:05:57.678Z,96538.53
2022-10-13T23:08:30.907Z,96535.03
2022-10-13T23:11:03.734Z,96535.81
2022-10-13T23:13:36.738Z,96530.44
2022-10-13T23:16:12.100Z,96528.13
2022-10-13T23:18:46.636Z,96528.91
2022-10-13T23:21:22.197Z,96528.91
2022-10-13T23:23:56.938Z,96530.13
2022-10-13T23:26:30.338Z,96532.03
2022-10-13T23:29:03.565Z,96528.97
2022-10-13T23:31:36.424Z,96530.19
2022-10-13T23:34:11.173Z,96526.38
2022-10-13T23:36:43.965Z,96516.38
2022-10-13T23:39:16.870Z,96514.88
2022-10-13T23:41:49.748Z,96513.34
2022-10-13T23:44:22.625Z,96514.56
2022-10-13T23:46:55.457Z,96518.47
2022-10-13T23:49:29.754Z,96512.75
2022-10-13T23:52:05.144Z,96509.25
2022-10-13T23:54:40.213Z,96508.91
2022-10-13T23:57:13.069Z,96507.72
2022-10-13T23:59:46.953Z,96503.91
